Time;durP1;ratioP1;P1;durP2;ratioP2;P2;SDS_P1;SDS_P2;PMS_P1;PMS_P2;Temp;Humidity;BMP_temperature;BMP_pressure;BME280_temperature;BME280_humidity;BME280_pressure;Samples;Min_cycle;Max_cycle;Signal;HPM_P1;HPM_P2
2022/04/19 00:00:44;;;;;;;1.70;1.60;;;18.40;52.90;;;;;;5132412;28;20176;-75
2022/04/19 00:03:10;;;;;;;1.80;1.70;;;18.40;52.80;;;;;;5131584;28;20280;-73
2022/04/19 00:05:36;;;;;;;1.73;1.63;;;18.40;52.80;;;;;;5132447;28;20180;-74
2022/04/19 00:08:05;;;;;;;2.65;1.77;;;18.40;52.90;;;;;;5131508;28;20172;-72
2022/04/19 00:10:31;;;;;;;2.47;1.70;;;18.40;52.90;;;;;;5133217;27;20276;-73
2022/04/19 00:12:57;;;;;;;2.25;2.05;;;18.40;52.80;;;;;;5136337;27;20490;-72
2022/04/19 00:15:23;;;;;;;3.03;1.95;;;18.40;52.80;;;;;;5135854;27;20190;-72
2022/04/19 00:17:49;;;;;;;1.60;1.50;;;18.40;52.80;;;;;;5136293;27;20227;-73
2022/04/19 00:20:15;;;;;;;1.90;1.67;;;18.40;52.80;;;;;;5136552;27;20164;-73
2022/04/19 00:22:40;;;;;;;1.60;1.50;;;18.30;52.80;;;;;;5135347;27;20192;-74
2022/04/19 00:25:07;;;;;;;2.00;1.90;;;18.30;52.80;;;;;;5136426;27;20634;-73
2022/04/19 00:27:33;;;;;;;1.88;1.67;;;18.40;52.80;;;;;;5135992;27;20268;-74
2022/04/19 00:29:59;;;;;;;2.78;1.80;;;18.30;52.80;;;;;;5135449;27;20229;-73
2022/04/19 00:32:24;;;;;;;1.67;1.58;;;18.30;52.80;;;;;;5136429;27;20173;-74
2022/04/19 00:34:51;;;;;;;1.65;1.55;;;18.30;52.80;;;;;;5135871;27;20549;-73
2022/04/19 00:37:17;;;;;;;1.70;1.60;;;18.30;52.80;;;;;;5135583;27;20303;-73
2022/04/19 00:39:42;;;;;;;2.08;1.70;;;18.30;52.80;;;;;;5135854;27;20665;-74
2022/04/19 00:42:08;;;;;;;1.90;1.80;;;18.30;52.80;;;;;;5136195;27;20180;-73
2022/04/19 00:44:37;;;;;;;2.05;1.55;;;18.30;52.80;;;;;;5135618;27;20233;-73
2022/04/19 00:47:07;;;;;;;1.80;1.70;;;18.30;52.80;;;;;;5135858;27;20263;-73
2022/04/19 00:49:34;;;;;;;1.65;1.55;;;18.30;53.50;;;;;;5136078;27;20188;-73
2022/04/19 00:52:00;;;;;;;1.55;1.45;;;18.30;52.80;;;;;;5135226;27;20255;-73
2022/04/19 00:54:25;;;;;;;1.65;1.55;;;18.30;52.80;;;;;;5100274;27;20630;-73
2022/04/19 00:56:53;;;;;;;2.15;1.80;;;18.30;52.80;;;;;;5117069;27;20235;-74
2022/04/19 00:59:20;;;;;;;1.73;1.63;;;18.30;52.80;;;;;;5117099;27;20175;-74
2022/04/19 01:01:45;;;;;;;1.70;1.60;;;18.20;52.80;;;;;;5117084;27;20176;-75
2022/04/19 01:04:11;;;;;;;1.80;1.70;;;18.30;52.80;;;;;;5135080;27;20681;-73
2022/04/19 01:06:36;;;;;;;1.40;1.30;;;18.20;52.80;;;;;;5135033;27;20176;-74
2022/04/19 01:09:02;;;;;;;1.60;1.50;;;18.20;52.80;;;;;;5117089;27;20217;-72
2022/04/19 01:14:13;;;;;;;1.83;1.73;;;18.20;52.80;;;;;;5135486;27;20168;-73
2022/04/19 01:16:40;;;;;;;2.08;1.88;;;18.20;52.80;;;;;;5116814;27;20204;-74
2022/04/19 01:19:05;;;;;;;1.52;1.42;;;18.20;52.80;;;;;;5116582;27;20173;-72
2022/04/19 01:21:48;;;;;;;1.65;1.55;;;18.20;52.80;;;;;;5116640;27;20236;-73
2022/04/19 01:24:18;;;;;;;2.90;1.83;;;18.20;52.80;;;;;;5135404;27;20220;-73
2022/04/19 01:26:44;;;;;;;1.70;1.60;;;18.20;52.80;;;;;;5134090;27;20684;-74
2022/04/19 01:29:12;;;;;;;1.77;1.67;;;18.20;52.80;;;;;;5135330;27;20207;-72
2022/04/19 01:31:38;;;;;;;1.90;1.77;;;18.10;52.70;;;;;;5135000;27;20180;-75
2022/04/19 01:34:04;;;;;;;1.90;1.50;;;18.10;52.70;;;;;;5134187;27;20647;-74
2022/04/19 01:36:29;;;;;;;1.65;1.55;;;18.20;52.80;;;;;;5134984;27;20208;-74
2022/04/19 01:38:55;;;;;;;1.83;1.67;;;18.20;52.80;;;;;;5134831;27;20168;-73
2022/04/19 01:41:21;;;;;;;1.65;1.55;;;18.10;52.70;;;;;;5133989;27;20183;-73
2022/04/19 01:43:46;;;;;;;1.92;1.73;;;18.10;52.70;;;;;;5134448;27;20168;-74
2022/04/19 01:46:12;;;;;;;1.40;1.30;;;18.10;52.70;;;;;;5134518;27;20169;-73
2022/04/19 01:48:37;;;;;;;1.70;1.60;;;18.10;52.70;;;;;;5133489;27;20172;-74
2022/04/19 01:51:03;;;;;;;1.48;1.38;;;18.10;52.70;;;;;;5134257;27;20743;-72
2022/04/19 01:53:29;;;;;;;1.60;1.50;;;18.10;52.70;;;;;;5133811;27;20176;-74
2022/04/19 01:55:55;;;;;;;2.17;1.95;;;18.10;52.80;;;;;;5134163;27;20530;-73
2022/04/19 01:58:20;;;;;;;1.73;1.63;;;18.10;52.70;;;;;;5134552;27;20184;-74
2022/04/19 02:00:45;;;;;;;1.70;1.60;;;18.10;52.70;;;;;;5133113;27;20691;-74
2022/04/19 02:03:11;;;;;;;1.98;1.80;;;18.10;52.70;;;;;;5134029;27;20220;-74
2022/04/19 02:05:37;;;;;;;1.98;1.88;;;18.10;52.70;;;;;;5133732;27;20172;-74
2022/04/19 02:08:02;;;;;;;2.15;1.95;;;18.10;52.80;;;;;;5133610;27;20192;-73
2022/04/19 02:10:28;;;;;;;1.77;1.67;;;18.10;52.70;;;;;;5134219;27;20188;-73
2022/04/19 02:12:53;;;;;;;1.90;1.80;;;18.10;52.80;;;;;;5133832;27;20164;-72
2022/04/19 02:15:19;;;;;;;1.77;1.67;;;18.10;52.70;;;;;;5133403;27;20176;-72
2022/04/19 02:17:49;;;;;;;1.95;1.85;;;18.10;52.70;;;;;;5133542;27;20214;-74
2022/04/19 02:20:16;;;;;;;2.85;2.10;;;18.10;52.80;;;;;;5134144;27;20172;-73
2022/04/19 02:22:41;;;;;;;2.17;1.98;;;18.00;52.70;;;;;;5133681;27;20241;-73
2022/04/19 02:25:09;;;;;;;1.92;1.77;;;18.00;52.70;;;;;;5135048;27;20168;-73
2022/04/19 02:27:34;;;;;;;2.30;2.10;;;18.00;52.70;;;;;;5135056;27;20532;-73
2022/04/19 02:30:04;;;;;;;1.80;1.70;;;18.00;52.70;;;;;;5134051;27;20169;-73
2022/04/19 02:32:30;;;;;;;2.30;2.10;;;18.00;52.70;;;;;;5134728;27;20203;-74
2022/04/19 02:34:57;;;;;;;2.03;1.90;;;18.00;52.70;;;;;;5133967;27;20628;-73
2022/04/19 02:37:22;;;;;;;2.63;1.88;;;18.00;52.70;;;;;;5133941;27;20208;-73
2022/04/19 02:39:51;;;;;;;1.77;1.67;;;18.00;52.70;;;;;;5134323;27;20168;-74
2022/04/19 02:42:17;;;;;;;1.90;1.75;;;18.00;52.70;;;;;;5134632;27;20176;-73
2022/04/19 02:44:43;;;;;;;1.67;1.58;;;18.00;52.70;;;;;;5133731;27;20169;-74
2022/04/19 02:47:11;;;;;;;2.10;1.90;;;18.00;52.70;;;;;;5134445;27;20176;-74
2022/04/19 02:49:37;;;;;;;2.22;2.05;;;18.00;52.70;;;;;;5134209;27;20173;-74
2022/04/19 02:52:03;;;;;;;2.20;2.00;;;18.00;52.60;;;;;;5133867;27;20183;-73
2022/04/19 02:54:28;;;;;;;2.15;1.95;;;18.00;52.60;;;;;;5134695;27;20172;-72
2022/04/19 02:56:54;;;;;;;1.95;1.85;;;18.00;52.70;;;;;;5133157;27;20768;-74
2022/04/19 02:59:19;;;;;;;1.90;1.80;;;17.90;52.60;;;;;;5134188;27;20181;-74
2022/04/19 03:01:45;;;;;;;2.35;2.15;;;17.90;52.70;;;;;;5133758;27;20173;-75
2022/04/19 03:04:10;;;;;;;2.30;2.10;;;17.90;52.70;;;;;;5133239;27;20219;-72
2022/04/19 03:06:36;;;;;;;2.13;1.92;;;17.90;52.70;;;;;;5133754;27;20172;-74
2022/04/19 03:09:01;;;;;;;1.90;1.80;;;17.90;52.60;;;;;;5134190;27;20176;-72
2022/04/19 03:11:27;;;;;;;2.15;2.05;;;17.90;52.60;;;;;;5133476;27;20164;-72
2022/04/19 03:13:53;;;;;;;2.08;1.90;;;17.90;52.60;;;;;;5133719;27;20187;-73
2022/04/19 03:16:19;;;;;;;2.45;2.15;;;17.90;52.60;;;;;;5133888;27;20208;-72
2022/04/19 03:18:45;;;;;;;1.95;1.85;;;17.90;52.60;;;;;;5133072;27;20165;-74
2022/04/19 03:21:10;;;;;;;2.20;2.05;;;17.90;52.60;;;;;;5134083;27;20168;-73
2022/04/19 03:29:05;;;;;;;2.30;2.10;;;17.90;52.60;;;;;;5133793;27;20164;-72
2022/04/19 03:31:31;;;;;;;2.00;1.90;;;17.80;52.60;;;;;;5133949;27;20172;-75
2022/04/19 03:33:57;;;;;;;2.05;1.90;;;17.80;52.60;;;;;;5132909;27;20196;-74
2022/04/19 03:36:23;;;;;;;2.28;1.83;;;17.80;52.60;;;;;;5133715;27;20247;-73
2022/04/19 03:38:48;;;;;;;2.45;2.10;;;17.80;52.60;;;;;;5133589;27;20169;-74
2022/04/19 03:41:14;;;;;;;1.80;1.70;;;17.80;52.60;;;;;;5132949;27;20498;-73
2022/04/19 03:43:41;;;;;;;2.13;1.90;;;17.80;52.60;;;;;;5133191;28;20271;-74
2022/04/19 03:46:06;;;;;;;1.98;1.88;;;17.80;52.60;;;;;;5131903;27;20540;-73
2022/04/19 03:48:32;;;;;;;2.08;1.90;;;17.80;52.60;;;;;;5133701;27;20168;-74
2022/04/19 03:50:58;;;;;;;1.85;1.75;;;17.80;52.60;;;;;;5133367;28;20255;-72
2022/04/19 03:53:23;;;;;;;2.17;1.98;;;17.80;52.60;;;;;;5132964;28;20227;-72
2022/04/19 03:55:49;;;;;;;1.98;1.88;;;17.80;52.60;;;;;;5133285;28;20220;-73
2022/04/19 03:58:14;;;;;;;1.60;1.50;;;17.80;52.60;;;;;;5133481;28;20216;-74
2022/04/19 04:00:40;;;;;;;2.20;2.00;;;17.70;52.60;;;;;;5132558;28;20657;-74
2022/04/19 04:03:06;;;;;;;2.33;2.13;;;17.70;52.50;;;;;;5133378;28;20690;-73
2022/04/19 04:05:32;;;;;;;1.90;1.80;;;17.80;52.60;;;;;;5133567;27;20188;-73
2022/04/19 04:07:57;;;;;;;2.30;2.10;;;17.80;52.60;;;;;;5132470;28;20177;-72
2022/04/19 04:10:23;;;;;;;1.92;1.80;;;17.80;52.60;;;;;;5133296;28;20553;-72
2022/04/19 04:12:48;;;;;;;2.05;1.90;;;17.70;52.60;;;;;;5133210;28;20175;-73
2022/04/19 04:15:14;;;;;;;2.08;1.90;;;17.70;52.60;;;;;;5132690;28;20161;-72
2022/04/19 04:17:39;;;;;;;2.38;2.20;;;17.70;52.60;;;;;;5132921;28;20299;-74
2022/04/19 04:20:06;;;;;;;2.53;2.33;;;17.70;52.60;;;;;;5133400;28;20180;-72
2022/04/19 04:22:31;;;;;;;2.38;2.17;;;17.70;52.50;;;;;;5132665;28;20169;-73
2022/04/19 04:24:57;;;;;;;2.30;2.10;;;17.70;52.60;;;;;;5132945;28;20175;-73
2022/04/19 04:27:22;;;;;;;2.13;1.92;;;17.70;52.60;;;;;;5133169;28;20169;-74
2022/04/19 04:29:48;;;;;;;2.22;2.03;;;17.70;52.60;;;;;;5132346;28;20173;-75
2022/04/19 04:32:13;;;;;;;1.80;1.70;;;17.70;52.60;;;;;;5133399;28;20168;-74
2022/04/19 04:34:39;;;;;;;2.17;2.03;;;17.70;52.60;;;;;;5132883;28;20177;-74
2022/04/19 04:37:04;;;;;;;2.45;2.20;;;17.70;52.60;;;;;;5132356;28;20552;-73
2022/04/19 04:39:30;;;;;;;1.90;1.80;;;17.70;52.60;;;;;;5132983;28;20529;-73
2022/04/19 04:41:55;;;;;;;1.83;1.73;;;17.70;52.60;;;;;;5132924;28;20170;-73
2022/04/19 04:44:24;;;;;;;2.78;2.30;;;17.70;52.60;;;;;;5132407;28;20219;-73
2022/04/19 04:49:36;;;;;;;2.33;2.10;;;17.70;52.60;;;;;;5132458;28;20191;-73
2022/04/19 04:52:11;;;;;;;2.30;2.10;;;17.60;52.50;;;;;;5132870;28;20177;-72
2022/04/19 04:54:37;;;;;;;2.30;2.10;;;17.60;52.50;;;;;;5132798;28;20176;-74
2022/04/19 04:57:03;;;;;;;1.90;1.80;;;17.60;52.50;;;;;;5133454;27;20261;-73
2022/04/19 04:59:29;;;;;;;2.38;2.17;;;17.60;52.50;;;;;;5136709;27;20196;-73
2022/04/19 05:01:56;;;;;;;2.17;1.98;;;17.70;52.50;;;;;;5136469;27;20255;-75
2022/04/19 05:04:21;;;;;;;2.33;2.13;;;17.60;52.50;;;;;;5135682;27;20224;-74
2022/04/19 05:06:49;;;;;;;1.98;1.85;;;17.70;52.50;;;;;;5136258;27;20571;-74
2022/04/19 05:09:15;;;;;;;1.98;1.88;;;17.70;52.50;;;;;;5136574;27;20175;-73
2022/04/19 05:11:40;;;;;;;2.40;2.20;;;17.70;52.50;;;;;;5135568;27;20169;-73
2022/04/19 05:14:07;;;;;;;2.42;2.22;;;17.70;52.50;;;;;;5136514;27;20179;-73
2022/04/19 05:16:33;;;;;;;2.35;2.15;;;17.60;52.40;;;;;;5136380;27;20223;-73
2022/04/19 05:18:59;;;;;;;2.38;2.17;;;17.70;52.50;;;;;;5135251;27;20177;-73
2022/04/19 05:21:24;;;;;;;2.30;2.10;;;17.60;52.40;;;;;;5136087;27;20206;-73
2022/04/19 05:23:50;;;;;;;2.00;1.90;;;17.60;52.40;;;;;;5135950;27;20176;-73
2022/04/19 05:26:15;;;;;;;2.05;1.90;;;17.70;52.40;;;;;;5135397;27;20225;-73
2022/04/19 05:28:41;;;;;;;2.40;2.20;;;17.60;52.40;;;;;;5135897;27;20642;-74
2022/04/19 05:31:06;;;;;;;2.20;2.10;;;17.60;52.40;;;;;;5135987;27;20183;-72
2022/04/19 05:33:32;;;;;;;1.98;1.88;;;17.60;52.30;;;;;;5135305;27;20168;-74
2022/04/19 05:35:57;;;;;;;2.20;2.00;;;17.70;52.40;;;;;;5135514;27;20566;-73
2022/04/19 05:38:23;;;;;;;2.50;2.30;;;17.60;52.30;;;;;;5135698;27;20212;-74
2022/04/19 05:40:48;;;;;;;1.88;1.77;;;17.60;52.30;;;;;;5116408;27;20172;-75
2022/04/19 05:43:14;;;;;;;2.22;2.10;;;17.70;52.40;;;;;;5135860;27;20211;-74
2022/04/19 05:45:39;;;;;;;2.03;1.92;;;17.70;52.40;;;;;;5134732;27;20188;-75
2022/04/19 05:48:05;;;;;;;2.25;2.08;;;17.70;52.30;;;;;;5135691;27;20195;-73
2022/04/19 05:50:31;;;;;;;2.58;2.38;;;17.70;52.40;;;;;;5135477;27;20173;-73
2022/04/19 05:52:56;;;;;;;2.65;2.28;;;17.70;52.40;;;;;;5134774;27;20570;-74
2022/04/19 05:55:22;;;;;;;2.00;1.90;;;17.70;53.00;;;;;;5135557;27;20638;-73
2022/04/19 05:57:47;;;;;;;2.25;2.10;;;17.70;52.90;;;;;;5135126;27;20235;-75
2022/04/19 06:00:13;;;;;;;2.25;2.10;;;17.70;52.30;;;;;;5134885;27;20171;-75
2022/04/19 06:05:23;;;;;;;2.00;1.90;;;17.70;52.30;;;;;;5135463;27;20175;-75
2022/04/19 06:07:52;;;;;;;2.50;2.30;;;17.70;52.20;;;;;;5133943;27;20177;-73
2022/04/19 06:10:17;;;;;;;1.90;1.80;;;17.70;52.20;;;;;;5134868;27;20176;-72
2022/04/19 06:12:46;;;;;;;1.90;1.80;;;17.80;52.20;;;;;;5134878;27;20176;-73
2022/04/19 06:15:12;;;;;;;2.00;1.90;;;17.80;52.20;;;;;;5116036;27;20191;-70
2022/04/19 06:17:38;;;;;;;4.13;2.28;;;17.80;52.20;;;;;;5134857;27;20731;-71
2022/04/19 06:20:04;;;;;;;8.90;2.85;;;17.70;52.10;;;;;;5135130;27;20172;-70
2022/04/19 06:22:30;;;;;;;2.85;2.08;;;17.80;51.80;;;;;;5134308;27;20191;-70
2022/04/19 06:24:56;;;;;;;5.00;2.53;;;17.80;51.80;;;;;;5134882;27;20233;-73
2022/04/19 06:27:22;;;;;;;4.00;2.22;;;17.90;51.80;;;;;;5135078;27;20173;-77
2022/04/19 06:29:47;;;;;;;6.00;2.60;;;17.90;51.90;;;;;;5134176;27;20662;-75
2022/04/19 06:32:13;;;;;;;2.78;2.13;;;17.90;51.80;;;;;;5134919;27;20176;-74
2022/04/19 06:34:42;;;;;;;2.72;1.85;;;17.90;51.70;;;;;;5134745;27;20224;-73
2022/04/19 06:37:07;;;;;;;2.67;2.40;;;17.90;51.80;;;;;;5134140;27;20268;-75
2022/04/19 06:39:33;;;;;;;2.78;2.58;;;17.90;51.80;;;;;;5134540;27;20180;-75
2022/04/19 06:41:58;;;;;;;2.75;2.20;;;17.90;51.90;;;;;;5133757;27;20682;-74
2022/04/19 06:44:24;;;;;;;3.95;2.28;;;17.90;51.80;;;;;;5134781;27;20177;-75
2022/04/19 06:46:50;;;;;;;2.78;2.42;;;18.00;51.80;;;;;;5134334;27;20273;-75
2022/04/19 06:49:16;;;;;;;2.42;2.13;;;18.00;51.80;;;;;;5134066;27;20172;-74
2022/04/19 06:51:42;;;;;;;2.90;2.40;;;18.00;51.70;;;;;;5134171;27;20665;-75
2022/04/19 06:54:09;;;;;;;3.20;2.30;;;18.00;51.70;;;;;;5134577;27;20173;-73
2022/04/19 06:56:35;;;;;;;4.07;2.70;;;18.00;51.80;;;;;;5133750;27;20196;-73
2022/04/19 06:59:00;;;;;;;3.63;2.42;;;18.00;51.80;;;;;;5134216;27;20654;-72
2022/04/19 07:01:26;;;;;;;2.50;2.30;;;18.00;51.80;;;;;;5134270;27;20244;-72
2022/04/19 07:03:52;;;;;;;5.22;2.40;;;18.00;51.80;;;;;;5132991;27;20224;-73
2022/04/19 07:06:18;;;;;;;3.47;2.50;;;18.00;51.80;;;;;;5134354;27;20183;-73
2022/04/19 07:08:43;;;;;;;3.05;2.58;;;18.00;51.80;;;;;;5133784;27;20542;-75
2022/04/19 07:11:11;;;;;;;5.40;2.10;;;18.00;51.80;;;;;;5133563;27;20176;-75
2022/04/19 07:13:37;;;;;;;2.20;2.00;;;18.00;51.80;;;;;;5133699;27;20179;-74
2022/04/19 07:16:02;;;;;;;3.38;2.15;;;18.00;51.80;;;;;;5133891;27;20192;-75
2022/04/19 07:18:28;;;;;;;2.60;2.40;;;18.10;51.80;;;;;;5133466;27;20215;-74
2022/04/19 07:29:15;;;;;;;2.78;2.25;;;18.10;52.40;;;;;;5134051;27;20182;-74
2022/04/19 07:31:42;;;;;;;3.83;2.70;;;18.10;51.60;;;;;;5132660;27;20660;-75
2022/04/19 07:34:08;;;;;;;3.97;2.35;;;18.20;51.60;;;;;;5133919;27;20664;-72
2022/04/19 07:36:40;;;;;;;2.67;2.47;;;18.20;51.50;;;;;;5133834;27;20203;-73
2022/04/19 07:39:06;;;;;;;3.40;2.38;;;18.20;51.50;;;;;;5133068;27;20169;-73
2022/04/19 07:41:32;;;;;;;3.10;2.20;;;18.20;51.40;;;;;;5133898;27;20168;-73
2022/04/19 07:43:58;;;;;;;3.67;2.53;;;18.20;51.40;;;;;;5133511;28;20234;-73
2022/04/19 07:46:23;;;;;;;2.55;2.35;;;18.30;51.40;;;;;;5133045;28;20576;-73
2022/04/19 07:48:51;;;;;;;5.35;3.20;;;18.30;51.40;;;;;;5133392;28;20177;-74
2022/04/19 07:51:17;;;;;;;3.10;2.45;;;18.30;51.30;;;;;;5133590;28;20257;-73
2022/04/19 07:53:42;;;;;;;3.40;2.33;;;18.30;51.30;;;;;;5132763;28;20168;-74
2022/04/19 07:56:08;;;;;;;2.97;2.53;;;18.30;51.30;;;;;;5134143;28;20168;-73
2022/04/19 07:58:33;;;;;;;2.78;2.55;;;18.40;51.30;;;;;;5133455;28;20688;-73
2022/04/19 08:00:59;;;;;;;2.65;2.10;;;18.30;51.20;;;;;;5132697;28;20177;-73
2022/04/19 08:03:25;;;;;;;2.53;2.33;;;18.30;51.20;;;;;;5133258;28;20229;-72
2022/04/19 08:05:51;;;;;;;2.97;2.67;;;18.40;51.30;;;;;;5133196;28;20177;-73
2022/04/19 08:08:18;;;;;;;3.00;2.30;;;18.40;51.20;;;;;;5132522;28;20704;-75
2022/04/19 08:10:44;;;;;;;2.72;2.40;;;18.40;51.30;;;;;;5133412;28;20173;-76
2022/04/19 08:13:09;;;;;;;2.20;2.00;;;18.40;51.40;;;;;;5133544;28;20544;-76
2022/04/19 08:15:35;;;;;;;2.25;2.05;;;18.40;51.30;;;;;;5132332;28;20221;-74
2022/04/19 08:18:00;;;;;;;2.17;1.98;;;18.40;51.50;;;;;;5133117;28;20208;-74
2022/04/19 08:20:26;;;;;;;2.35;1.88;;;18.40;52.10;;;;;;5132441;28;20496;-75
2022/04/19 08:22:51;;;;;;;1.90;1.80;;;18.50;51.50;;;;;;5133103;28;20207;-74
2022/04/19 08:25:17;;;;;;;2.58;2.00;;;18.50;51.60;;;;;;5133214;28;20277;-75
2022/04/19 08:27:45;;;;;;;1.90;1.77;;;18.50;51.60;;;;;;5132278;28;20172;-75
2022/04/19 08:30:12;;;;;;;4.38;2.10;;;18.50;51.60;;;;;;5133392;28;20184;-72
2022/04/19 08:32:37;;;;;;;3.25;1.98;;;18.50;51.70;;;;;;5135138;27;20263;-72
2022/04/19 08:35:03;;;;;;;2.42;2.10;;;18.50;51.60;;;;;;5136407;27;20561;-71
2022/04/19 08:37:34;;;;;;;1.88;1.60;;;18.50;51.60;;;;;;5137135;27;20215;-72
2022/04/19 08:40:00;;;;;;;3.00;2.00;;;18.50;51.60;;;;;;5137191;27;20179;-73
2022/04/19 08:42:29;;;;;;;2.90;2.30;;;18.50;51.60;;;;;;5136305;27;20180;-73
2022/04/19 08:44:54;;;;;;;3.63;2.08;;;18.60;51.60;;;;;;5118800;27;20718;-73
2022/04/19 08:47:20;;;;;;;3.20;2.05;;;18.60;51.60;;;;;;5136878;27;20190;-73
2022/04/19 08:49:45;;;;;;;2.28;2.13;;;18.60;51.70;;;;;;5100537;27;20169;-74
2022/04/19 08:52:11;;;;;;;2.13;1.92;;;18.60;51.70;;;;;;5101606;27;20179;-72
2022/04/19 08:57:29;;;;;;;2.03;1.85;;;18.60;51.60;;;;;;5120357;27;20284;-73
2022/04/19 08:59:55;;;;;;;1.92;1.70;;;18.70;51.70;;;;;;5136492;27;20188;-73
2022/04/19 09:02:25;;;;;;;1.80;1.70;;;18.70;51.70;;;;;;5136433;27;20184;-73
2022/04/19 09:04:51;;;;;;;2.70;1.95;;;18.70;51.70;;;;;;5135947;27;20255;-74
2022/04/19 09:07:17;;;;;;;3.03;1.92;;;18.70;51.70;;;;;;5136688;27;20178;-75
2022/04/19 09:09:42;;;;;;;2.15;2.00;;;18.70;51.60;;;;;;5135454;27;20172;-76
2022/04/19 09:12:12;;;;;;;2.13;1.65;;;18.70;51.60;;;;;;5118096;27;20259;-76
2022/04/19 09:15:00;;;;;;;2.83;2.10;;;18.80;51.70;;;;;;5135875;27;20187;-77
2022/04/19 09:17:41;;;;;;;2.72;1.70;;;18.70;51.60;;;;;;5135540;27;20674;-76
2022/04/19 09:20:19;;;;;;;2.42;2.22;;;18.80;51.60;;;;;;5136391;27;20180;-76
2022/04/19 09:22:51;;;;;;;2.17;1.77;;;18.80;51.50;;;;;;5135815;27;20183;-74
2022/04/19 09:25:24;;;;;;;2.28;1.80;;;18.80;51.50;;;;;;5135475;27;20168;-76
2022/04/19 09:27:50;;;;;;;2.85;1.98;;;18.80;51.50;;;;;;5136031;27;20176;-75
2022/04/19 09:30:17;;;;;;;2.17;1.77;;;18.90;51.50;;;;;;5136227;27;20245;-75
2022/04/19 09:32:58;;;;;;;2.97;2.08;;;18.80;51.40;;;;;;5135254;27;20196;-73
2022/04/19 09:35:30;;;;;;;2.35;1.85;;;18.90;51.50;;;;;;5117598;27;20176;-73
2022/04/19 09:37:56;;;;;;;2.50;2.00;;;18.90;51.50;;;;;;5134879;27;21050;-73
2022/04/19 09:40:35;;;;;;;1.98;1.77;;;18.90;51.40;;;;;;5136014;27;20200;-74
2022/04/19 09:43:11;;;;;;;2.45;2.25;;;18.90;51.40;;;;;;5135904;27;20173;-77
2022/04/19 09:45:46;;;;;;;1.98;1.88;;;18.90;51.50;;;;;;5134696;27;20630;-76
2022/04/19 09:48:16;;;;;;;2.13;1.92;;;18.90;51.40;;;;;;5135739;27;20180;-75
2022/04/19 09:50:48;;;;;;;3.00;2.15;;;19.00;51.20;;;;;;5135588;27;20192;-77
2022/04/19 09:53:17;;;;;;;2.95;2.10;;;19.00;51.10;;;;;;5135144;27;20212;-76
2022/04/19 09:55:49;;;;;;;2.22;2.03;;;19.00;51.00;;;;;;5135290;27;20172;-77
2022/04/19 09:58:15;;;;;;;2.83;1.88;;;19.00;51.00;;;;;;5135473;27;20211;-76
2022/04/19 10:00:43;;;;;;;3.47;2.10;;;19.00;51.00;;;;;;5134273;27;20603;-74
2022/04/19 10:08:38;;;;;;;3.13;1.73;;;19.00;50.90;;;;;;5119723;27;20191;-77
2022/04/19 10:11:03;;;;;;;2.42;1.90;;;19.00;50.80;;;;;;5116940;27;20179;-76
2022/04/19 10:13:29;;;;;;;2.50;1.88;;;19.00;50.80;;;;;;5134630;27;20180;-77
2022/04/19 10:15:55;;;;;;;2.05;1.67;;;19.10;50.90;;;;;;5135115;27;20557;-76
2022/04/19 10:18:20;;;;;;;1.98;1.80;;;19.10;50.90;;;;;;5135205;27;20215;-76
2022/04/19 10:20:54;;;;;;;1.83;1.73;;;19.10;50.80;;;;;;5134359;27;20233;-75
2022/04/19 10:23:19;;;;;;;3.03;2.08;;;19.10;51.10;;;;;;5118065;27;20176;-74
2022/04/19 10:25:46;;;;;;;2.58;2.30;;;19.10;50.70;;;;;;5116563;27;20176;-73
2022/04/19 10:28:24;;;;;;;3.47;2.00;;;19.10;50.60;;;;;;5134334;27;20525;-73
2022/04/19 10:30:52;;;;;;;3.17;2.13;;;19.10;51.20;;;;;;5134829;27;20184;-76
2022/04/19 10:33:37;;;;;;;3.88;2.20;;;19.20;50.60;;;;;;5116983;27;20749;-73
2022/04/19 10:36:13;;;;;;;4.00;1.95;;;19.20;50.60;;;;;;5134224;27;20180;-74
2022/04/19 10:38:39;;;;;;;2.17;2.00;;;19.20;50.50;;;;;;5134709;27;20192;-77
2022/04/19 10:41:04;;;;;;;2.45;1.90;;;19.20;50.50;;;;;;5134277;27;20164;-74
2022/04/19 10:43:30;;;;;;;2.40;1.95;;;19.20;50.60;;;;;;5134745;27;20267;-74
2022/04/19 10:46:19;;;;;;;2.05;1.67;;;19.30;51.20;;;;;;5116255;27;20169;-73
2022/04/19 10:49:25;;;;;;;1.70;1.60;;;19.30;50.50;;;;;;5133930;27;20184;-74
2022/04/19 10:51:52;;;;;;;2.97;1.67;;;19.30;50.50;;;;;;5093590;27;20184;-73
2022/04/19 10:54:42;;;;;;;2.83;1.95;;;19.30;50.50;;;;;;5134066;27;20177;-72
2022/04/19 10:58:05;;;;;;;1.85;1.73;;;19.30;50.50;;;;;;5118476;27;20216;-72
2022/04/19 11:00:23;;;;;;;2.00;1.80;;;19.40;50.60;;;;;;5134366;27;20168;-73
2022/04/19 11:03:00;;;;;;;1.60;1.50;;;19.40;50.50;;;;;;5133250;27;20284;-73
2022/04/19 11:05:59;;;;;;;1.77;1.67;;;19.40;50.50;;;;;;5134565;27;20645;-72
2022/04/19 11:08:24;;;;;;;1.60;1.50;;;19.40;50.50;;;;;;5123326;27;20188;-72
2022/04/19 11:10:56;;;;;;;1.77;1.67;;;19.40;50.50;;;;;;5133532;27;20526;-73
2022/04/19 11:13:22;;;;;;;2.50;1.80;;;19.40;50.50;;;;;;5134363;27;20197;-72
2022/04/19 11:16:01;;;;;;;2.47;1.77;;;19.40;50.50;;;;;;5134170;27;20251;-73
2022/04/19 11:18:27;;;;;;;3.65;1.95;;;19.40;50.50;;;;;;5133434;27;20219;-73
2022/04/19 11:21:15;;;;;;;1.42;1.33;;;19.40;50.40;;;;;;5134125;27;20244;-75
2022/04/19 11:23:42;;;;;;;2.38;1.65;;;19.40;50.40;;;;;;5133126;27;20176;-77
2022/04/19 11:26:08;;;;;;;1.83;1.73;;;19.50;50.30;;;;;;5134243;27;20173;-75
2022/04/19 11:28:34;;;;;;;1.92;1.70;;;19.50;50.30;;;;;;5115595;27;20538;-76
2022/04/19 11:31:00;;;;;;;2.95;1.85;;;19.50;50.30;;;;;;5133204;27;20639;-71
2022/04/19 11:33:34;;;;;;;1.58;1.33;;;19.50;50.30;;;;;;5134219;27;20194;-71
2022/04/19 11:36:07;;;;;;;2.95;1.80;;;19.60;50.40;;;;;;5134038;27;20569;-72
2022/04/19 11:38:35;;;;;;;4.22;1.60;;;19.50;50.30;;;;;;5133260;27;20207;-67
2022/04/19 11:46:46;;;;;;;4.13;1.60;;;19.60;50.40;;;;;;5133036;28;20654;-73
2022/04/19 11:49:27;;;;;;;3.25;2.08;;;19.60;50.30;;;;;;5134011;28;20190;-74
2022/04/19 11:51:54;;;;;;;3.15;1.60;;;19.70;50.40;;;;;;5132883;28;20176;-73
2022/04/19 11:54:27;;;;;;;2.83;1.55;;;19.70;50.30;;;;;;5133761;27;20188;-74
2022/04/19 11:56:57;;;;;;;2.35;1.48;;;19.70;50.30;;;;;;5133334;28;20257;-70
2022/04/19 11:59:26;;;;;;;4.22;1.55;;;19.70;50.30;;;;;;5132687;28;20185;-67
2022/04/19 12:01:52;;;;;;;3.38;1.50;;;19.70;50.20;;;;;;5133458;28;20177;-73
2022/04/19 12:04:18;;;;;;;8.25;2.00;;;19.70;50.30;;;;;;5133328;28;20242;-71
2022/04/19 12:06:54;;;;;;;2.72;1.60;;;19.80;50.30;;;;;;5133460;27;20280;-73
2022/04/19 12:09:19;;;;;;;3.55;1.55;;;19.80;50.20;;;;;;5137538;27;20598;-73
2022/04/19 12:11:46;;;;;;;1.88;1.67;;;19.90;50.30;;;;;;5137234;27;20203;-73
2022/04/19 12:14:32;;;;;;;2.75;1.60;;;19.90;50.30;;;;;;5136980;27;20180;-73
2022/04/19 12:17:01;;;;;;;2.33;1.50;;;19.90;50.30;;;;;;5137306;27;20196;-74
2022/04/19 12:19:40;;;;;;;3.08;1.80;;;19.90;50.30;;;;;;5136992;27;20180;-73
2022/04/19 12:22:21;;;;;;;2.13;1.30;;;19.90;50.30;;;;;;5137403;27;20191;-73
2022/04/19 12:24:58;;;;;;;3.65;1.60;;;20.00;50.30;;;;;;5136978;27;20519;-74
2022/04/19 12:27:31;;;;;;;1.60;1.27;;;20.00;50.30;;;;;;5136791;27;20252;-72
2022/04/19 12:30:04;;;;;;;3.08;1.20;;;20.00;50.30;;;;;;5137093;27;20182;-72
2022/04/19 12:32:59;;;;;;;3.03;1.65;;;20.00;50.40;;;;;;5137239;27;20180;-73
2022/04/19 12:35:34;;;;;;;1.50;1.25;;;20.00;50.40;;;;;;5118999;27;20172;-73
2022/04/19 12:38:18;;;;;;;2.05;1.40;;;20.10;50.50;;;;;;5136845;27;20268;-73
2022/04/19 12:40:44;;;;;;;2.22;1.48;;;20.10;50.50;;;;;;5136253;27;20168;-73
2022/04/19 12:43:10;;;;;;;1.58;1.42;;;20.20;50.50;;;;;;5136936;27;20182;-73
2022/04/19 12:45:36;;;;;;;2.10;1.10;;;20.30;50.40;;;;;;5136724;27;20619;-74
2022/04/19 12:48:03;;;;;;;3.20;1.33;;;20.30;50.30;;;;;;5136454;27;20187;-73
2022/04/19 12:50:29;;;;;;;3.70;1.60;;;20.40;50.20;;;;;;5137129;27;20175;-73
2022/04/19 12:52:55;;;;;;;1.20;1.20;;;20.50;50.20;;;;;;5136650;27;20181;-73
2022/04/19 12:55:30;;;;;;;2.85;1.30;;;20.50;50.10;;;;;;5135828;27;20229;-72
2022/04/19 12:58:06;;;;;;;1.38;1.00;;;20.50;50.10;;;;;;5136495;27;20215;-73
2022/04/19 13:00:32;;;;;;;1.58;1.13;;;20.60;50.10;;;;;;5136492;27;20263;-74
2022/04/19 13:02:58;;;;;;;2.25;1.50;;;20.60;50.00;;;;;;5135598;27;20299;-73
2022/04/19 13:12:16;;;;;;;1.25;0.95;;;20.70;50.00;;;;;;5136920;27;20229;-75
2022/04/19 13:13:37;;;;;;;3.70;1.50;;;20.70;49.60;;;;;;5136243;27;20317;-73
2022/04/19 13:16:02;;;;;;;1.63;1.50;;;20.70;49.60;;;;;;5135922;27;20209;-73
2022/04/19 13:18:28;;;;;;;3.13;1.45;;;20.70;49.60;;;;;;5135743;27;20298;-74
2022/04/19 13:20:53;;;;;;;1.33;1.10;;;20.80;49.70;;;;;;5136214;27;20169;-72
2022/04/19 13:23:19;;;;;;;3.08;1.50;;;20.90;49.60;;;;;;5135602;27;20172;-73
2022/04/19 13:25:45;;;;;;;2.95;1.50;;;20.90;49.60;;;;;;5135705;27;20176;-72
2022/04/19 13:28:10;;;;;;;1.92;1.10;;;21.00;49.70;;;;;;5136387;27;20223;-73
2022/04/19 13:30:39;;;;;;;3.58;1.33;;;21.00;49.70;;;;;;5135219;27;20164;-73
2022/04/19 13:33:05;;;;;;;2.08;1.27;;;21.00;49.70;;;;;;5118404;27;20179;-72